Share

Clarinda, IA

Schenck (KICL) Elev 994 ft | 40.72 °N, 95.03 °W | Change Station

Current weather conditions updated 20 minutes ago

Clear
Clear
81 °F
Feels Like 80 °F
N
16
Wind Variable Wind from SSW
Sunrise 6:33 AM
Sunset 8:04 PM
Moon Waning Gibbous

Today is forecast to be Warmer than yesterday. A few showers developing late tonight.

Pressure 30.01 in
Visibility 10.0 miles
Clouds Clear
Heat Index 80 °F
Dew Point 54 °F
Humidity 39%
Rainfall 0.00 in
Snow Depth Not available.
UV 10 out of 16
Pollen 8.50 out of 12
Air Quality Not available.
Flu Activity Sporadic
METAR KICL 201815Z AUTO 21014KT 10SM CLR 27/12 A3001 RMK AO2

More Conditions Fewer Conditions

Pressure 30.01 in
Visibility 10.0 miles
Clouds Clear
Heat Index 80 °F
Dew Point 54 °F
Humidity 39%
Rainfall 0.00 in
Snow Depth Not available.
UV 10 out of 16
Pollen 8.50 out of 12
Air Quality Not available.
Flu Activity Sporadic
METAR KICL 201815Z AUTO 21014KT 10SM CLR 27/12 A3001 RMK AO2

More Conditions Fewer Conditions

10-Day Weather Forecast

Almanac

Astronomy

Apr. 20, 2014 Rise Set
Actual Time 6:33 AM CDT 8:04 PM CDT
Civil Twilight 6:05 AM CDT 8:33 PM CDT
Nautical Twilight 5:30 AM CDT 9:08 PM CDT
Astronomical Twilight 4:53 AM CDT 9:45 PM CDT
Moon 12:46 AM CDT 10:54 AM CDT
Length of Visible Light 14h 28m
Length of Day
13h 31m
Tomorrow will be 2m 31s longer.
Waning Gibbous, 67% of the Moon is Illuminated
Today
Waning Gibbous
Apr 22
Last Quarter
Apr 29
New
May 6
First Quarter
May 14
Full

Today's Extremes

State Highs State Lows

Community

  • Columbine
    Columbine
  • Easter Sunrise
    Easter Sunrise
  • Easter Eve - The Promise - Lake Palestine, TX
    Easter Eve - The Promise - Lake Palestine, TX
  • Happy Easter
    Happy Easter
  • EARLY FOGGY MORNING
    EARLY FOGGY MORNING

WunderPhotos

Upload Photos

1,703,302 photos uploaded!

WunderBlogs® & News

Nearby

Snow Depth

Station Depth Elevation
No new snow has been reported.

Coastal Water Temperatures

Place Temperature
No Stations Reporting

Earthquake Activity

City Distance Mag. Time & Date
No recent earthquake activity has been reported nearby.
Minimum magnitude displayed is 2.5.

Nearby Weather Stations

Station Location Temp. Heat Index Dew Point Humidity Wind Precip. Elev Updated Type
HADS NODAWAY RIVER AT CLARINDA IA, Clarinda, IA 79 °F 77 °F - - North  at  - 0.00 in / hr 959 ft 12:15 PM CDT MADIS
East of Clarinda 1 mile, Clarinda, IA 77.9 °F 79 °F 56 °F 47% NNE  at  7.0 mph 0.00 in / hr 1102 ft 1:28 PM CDT Normal
Villisca, IA 81.0 °F 81 °F 55 °F 41% SW  at  9.8 mph 0.00 in / hr 1076 ft 1:35 PM CDT Rapid Fire
Toad Hollar, Burlington Junction, MO 81.9 °F 81 °F 54 °F 39% SW  at  20.6 mph 0.00 in / hr 997 ft 1:35 PM CDT Rapid Fire
Cottage and Maple, Shenandoah, IA 80.8 °F 81 °F 56 °F 43% SW  at  5.0 mph 0.00 in / hr 1016 ft 1:35 PM CDT Rapid Fire

Show More Stations Show Fewer Stations

What do you think?

We're not finished. Please let us know what you like, what you don't like, and what you are still missing.